Rechercher aéroport 
image banner adimage banner adimage banner ad
image banner ad

23CL - L A Co Mens Sheriffs Cntr Jail

Situé à Los Angeles, United States

ICAO - 23CL, IATA -

Données fournies par Airmate  

Information générale

Coordonnées: N34°3'41" W118°13'41"
Élévation : 352 feet MSL.
Variation magnétique : 14° East
Voir autres Aéroports à California

Données opérationnelles

Special qualification required
Heure actuelle UTC:
Heure actuelle locale:
Météo à : KEMT - San Gabriel Valley ( 18 km )
METAR: KEMT 262247Z 22007KT 8SM CLR 26/18 A2993 RMK BR IN ALL QUADRANTS.
Voir NOTAMs / SUP AIP / TFR affectant cet aéroport [VIEW]
Fréquences de communication: [VIEW]

Pistes:

Coordonnées de l'aéroport

Adresse: Los Angeles United States

Vue satellite de 23CL